Flugplatz Flugplatz Wels (LOLW)

Hier findest Du alle Informationen zum Flugplatz Flugplatz Wels (LOLW).

Informationen für Piloten zum Flugplatz Flugplatz Wels

Hier findest Du alle relevanten Informationen, die Du als Pilot benötigst, um Flugplatz Wels anzufliegen.

Flugplatz: Flugplatz Wels ICAO-Code: LOLW
Frequenz Turm: 119,70 Mhz GAFOR Gebiet: -
Frequenz Ground: 119,70 Mhz Mogas: ja
Platzrunde: N 2000 ft Landegebühr: 9 €
Platzhöhe: Sunrise: 05:45 Uhr UTC
Pisten: 09/27 - 1390 m x 30 m, ASPH Sunset: 15:49 Uhr UTC

Mitglieder, die in Flugplatz Wels fliegen

Flugwetter am Flugplatz Flugplatz Wels

Die METAR Information stammen aus EDDM (167.72 km entfernt).

METAR Code:
2020/10/24 07:50
EDDM 240750Z 26006KT 9999 BKN007 BKN040 12/11 Q1019 BECMG BKN010

Flugschulen am Flugplatz Flugplatz Wels

Am Flugplatz Flugplatz Wels gibt es leider keine Flugschule.

Jetzt anmelden

Passwort vergessen

Umfrage Archiv

Wären Rettungsgeräte keine Pflicht mehr, würdet Ihr Euer UL trotzdem mit einem ausstatten?

Ja
85.9 %
Nein
14.1 %
Stimmen: 361 | Diskussion
Anzeige: Roland Aircraft
Statistik Alle Mitglieder

Aktuell sind 45 Besucher online, davon 2 Mitglieder und 43 Gäste.


Mitglieder online:
trauntaler  francop 

Anzeige: VFR Sprechfunk Simulator


Anzeige: Pocket FMS